createdAt,value
2018-07-30T00:00:01.475Z,76.59
2018-07-30T00:01:01.511Z,78.58
2018-07-30T00:02:01.474Z,78.67
2018-07-30T00:03:01.492Z,77.51
2018-07-30T00:04:01.512Z,77.71
2018-07-30T00:05:01.693Z,77.90
2018-07-30T00:06:01.499Z,77.57
2018-07-30T00:07:01.521Z,77.38
2018-07-30T00:08:01.512Z,77.09
2018-07-30T00:09:01.532Z,76.80
2018-07-30T00:10:01.727Z,78.29
2018-07-30T00:11:01.745Z,78.06
2018-07-30T00:12:01.741Z,78.38
2018-07-30T00:13:01.771Z,77.22
2018-07-30T00:14:01.564Z,76.64
2018-07-30T00:15:01.556Z,76.93
2018-07-30T00:16:01.784Z,76.93
2018-07-30T00:17:01.781Z,78.09
2018-07-30T00:18:01.793Z,78.00
2018-07-30T00:19:01.579Z,76.06
2018-07-30T00:20:01.790Z,78.00
2018-07-30T00:21:01.602Z,78.96
2018-07-30T00:22:01.811Z,79.74
2018-07-30T00:23:01.811Z,81.48
2018-07-30T00:24:01.627Z,82.25
2018-07-30T00:25:01.620Z,80.86
2018-07-30T00:26:01.627Z,80.51
2018-07-30T00:27:01.832Z,80.38
2018-07-30T00:28:01.652Z,80.95
2018-07-30T00:29:01.645Z,80.28
2018-07-30T00:30:01.666Z,81.63
2018-07-30T00:31:01.892Z,82.60
2018-07-30T00:32:01.865Z,83.85
2018-07-30T00:33:01.873Z,81.82
2018-07-30T00:34:01.678Z,81.82
2018-07-30T00:35:01.684Z,81.82
2018-07-30T00:36:01.686Z,81.73
2018-07-30T00:37:01.698Z,81.53
2018-07-30T00:38:01.699Z,81.15
2018-07-30T00:39:01.909Z,80.53
2018-07-30T00:40:01.714Z,80.62
2018-07-30T00:41:01.717Z,79.95
2018-07-30T00:42:01.735Z,81.01
2018-07-30T00:43:01.745Z,80.72
2018-07-30T00:44:01.739Z,80.91
2018-07-30T00:45:01.758Z,81.49
2018-07-30T00:46:01.750Z,81.11
2018-07-30T00:47:01.768Z,81.11
2018-07-30T00:48:01.772Z,81.11
2018-07-30T00:49:01.767Z,81.98
2018-07-30T00:50:01.776Z,83.14
2018-07-30T00:51:01.832Z,82.65
2018-07-30T00:52:01.803Z,82.46
2018-07-30T00:53:01.807Z,82.36
2018-07-30T00:54:01.800Z,82.07
2018-07-30T00:55:01.835Z,82.40
2018-07-30T00:56:01.830Z,82.36
2018-07-30T00:57:01.817Z,83.52
2018-07-30T00:58:01.821Z,85.94
2018-07-30T00:59:02.037Z,86.52
2018-07-30T01:00:01.850Z,86.13
2018-07-30T01:01:01.889Z,85.64
2018-07-30T01:02:01.862Z,85.55
2018-07-30T01:03:01.857Z,83.72
2018-07-30T01:04:01.876Z,84.10
2018-07-30T01:05:01.876Z,85.12
2018-07-30T01:06:01.871Z,83.42
2018-07-30T01:07:02.084Z,84.20
2018-07-30T01:08:01.883Z,84.88
2018-07-30T01:09:01.891Z,85.02
2018-07-30T01:10:01.895Z,85.80
2018-07-30T01:11:01.902Z,86.13
2018-07-30T01:12:02.110Z,86.28
2018-07-30T01:13:02.115Z,85.50
2018-07-30T01:14:01.922Z,85.31
2018-07-30T01:15:02.127Z,86.08
2018-07-30T01:16:02.134Z,85.60
2018-07-30T01:17:02.142Z,85.22
2018-07-30T01:18:01.944Z,84.54
2018-07-30T01:19:01.950Z,84.64
2018-07-30T01:20:01.969Z,85.70
2018-07-30T01:21:01.966Z,85.02
2018-07-30T01:22:02.170Z,85.46
2018-07-30T01:23:01.972Z,85.46
2018-07-30T01:24:02.005Z,85.66
2018-07-30T01:25:01.998Z,86.24
2018-07-30T01:26:02.007Z,86.14
2018-07-30T01:27:02.201Z,86.77
2018-07-30T01:28:02.014Z,88.12
2018-07-30T01:29:02.020Z,88.31
2018-07-30T01:30:02.045Z,88.99
2018-07-30T01:31:02.048Z,88.99
2018-07-30T01:32:02.028Z,90.39
2018-07-30T01:33:02.045Z,89.62
2018-07-30T01:34:02.049Z,90.48
2018-07-30T01:35:02.044Z,91.55
2018-07-30T01:36:02.063Z,91.55
2018-07-30T01:37:02.260Z,90.68
2018-07-30T01:38:02.062Z,90.92
2018-07-30T01:39:02.094Z,91.36
2018-07-30T01:40:02.087Z,92.47
2018-07-30T01:41:02.079Z,91.69
2018-07-30T01:42:02.093Z,91.50
2018-07-30T01:43:02.111Z,91.21
2018-07-30T01:44:02.115Z,91.60
2018-07-30T01:45:02.099Z,91.02
2018-07-30T01:46:02.107Z,91.02
2018-07-30T01:47:02.111Z,90.92
2018-07-30T01:48:02.133Z,90.83
2018-07-30T01:49:02.120Z,90.64
2018-07-30T01:50:02.342Z,91.02
2018-07-30T01:51:02.353Z,91.41
2018-07-30T01:52:02.153Z,91.21
2018-07-30T01:53:02.156Z,91.12
2018-07-30T01:54:02.162Z,90.83
2018-07-30T01:55:02.154Z,91.89
2018-07-30T01:56:02.158Z,91.69
2018-07-30T01:57:02.165Z,91.50
2018-07-30T01:58:02.183Z,90.73
2018-07-30T01:59:02.178Z,91.02
2018-07-30T02:00:02.186Z,91.21
2018-07-30T02:01:02.196Z,91.31
2018-07-30T02:02:02.412Z,91.65
2018-07-30T02:03:02.198Z,91.75
2018-07-30T02:04:02.217Z,92.13
2018-07-30T02:05:02.208Z,92.61
2018-07-30T02:06:02.432Z,93.48
2018-07-30T02:07:02.247Z,94.01
2018-07-30T02:08:02.239Z,94.49
2018-07-30T02:09:02.243Z,95.65
2018-07-30T02:10:02.441Z,95.45
2018-07-30T02:11:02.253Z,94.87
2018-07-30T02:12:02.244Z,95.26
2018-07-30T02:13:02.251Z,94.64
2018-07-30T02:14:02.459Z,94.54
2018-07-30T02:15:02.271Z,94.15
2018-07-30T02:16:02.471Z,93.09
2018-07-30T02:17:02.475Z,93.24
2018-07-30T02:18:02.278Z,93.29
2018-07-30T02:19:02.283Z,93.29
2018-07-30T02:20:02.286Z,93.29
2018-07-30T02:21:02.290Z,93.87
2018-07-30T02:22:02.310Z,94.87
2018-07-30T02:23:02.316Z,95.60
2018-07-30T02:24:02.308Z,96.66
2018-07-30T02:25:02.339Z,97.71
2018-07-30T02:26:02.336Z,97.42
2018-07-30T02:27:02.537Z,98.00
2018-07-30T02:28:02.331Z,98.72
2018-07-30T02:29:02.351Z,98.14
2018-07-30T02:30:02.361Z,98.19
2018-07-30T02:31:02.364Z,98.87
2018-07-30T02:32:02.348Z,99.73
2018-07-30T02:33:02.363Z,98.91
2018-07-30T02:34:02.370Z,98.68
2018-07-30T02:35:02.363Z,99.06
2018-07-30T02:36:02.581Z,98.29
2018-07-30T02:37:02.374Z,98.39
2018-07-30T02:38:02.395Z,98.63
2018-07-30T02:39:02.586Z,98.44
2018-07-30T02:40:02.387Z,97.33
2018-07-30T02:41:02.403Z,97.14
2018-07-30T02:42:02.396Z,96.99
2018-07-30T02:43:02.417Z,96.56
2018-07-30T02:44:02.623Z,97.71
2018-07-30T02:45:02.410Z,98.49
2018-07-30T02:46:02.617Z,98.19
2018-07-30T02:47:02.420Z,98.68
2018-07-30T02:48:02.629Z,98.49
2018-07-30T02:49:02.434Z,97.71
2018-07-30T02:50:02.435Z,98.29
2018-07-30T02:51:02.455Z,98.49
2018-07-30T02:52:02.446Z,98.49
2018-07-30T02:53:02.479Z,99.68
2018-07-30T02:54:02.455Z,99.88
2018-07-30T02:55:02.472Z,99.99
2018-07-30T02:56:02.466Z,99.99
2018-07-30T02:57:02.468Z,99.99
2018-07-30T02:58:02.681Z,99.99
2018-07-30T02:59:02.682Z,99.99
2018-07-30T03:00:02.484Z,99.99
2018-07-30T03:01:02.689Z,99.99
2018-07-30T03:02:02.492Z,99.99
2018-07-30T03:03:02.699Z,99.78
2018-07-30T03:04:02.503Z,99.99
2018-07-30T03:05:02.504Z,99.93
2018-07-30T03:06:02.532Z,99.16
2018-07-30T03:07:02.515Z,98.87
2018-07-30T03:08:02.520Z,99.11
2018-07-30T03:09:02.524Z,98.82
2018-07-30T03:10:02.529Z,98.05
2018-07-30T03:11:02.534Z,98.24
2018-07-30T03:12:02.543Z,98.54
2018-07-30T03:13:02.546Z,98.54
2018-07-30T03:14:02.557Z,98.00
2018-07-30T03:15:02.557Z,98.49
2018-07-30T03:16:02.765Z,98.19
2018-07-30T03:17:02.565Z,98.53
2018-07-30T03:18:02.568Z,98.53
2018-07-30T03:19:02.610Z,99.30
2018-07-30T03:20:02.812Z,99.98
2018-07-30T03:21:02.582Z,99.99
2018-07-30T03:22:02.586Z,99.99
2018-07-30T03:23:02.593Z,99.99
2018-07-30T03:24:02.801Z,99.99
2018-07-30T03:25:02.611Z,99.99
2018-07-30T03:26:02.625Z,99.99
2018-07-30T03:27:02.610Z,99.99
2018-07-30T03:28:02.846Z,99.99
2018-07-30T03:29:02.621Z,99.99
2018-07-30T03:30:02.638Z,99.99
2018-07-30T03:31:02.629Z,99.99
2018-07-30T03:32:02.641Z,99.99
2018-07-30T03:33:02.654Z,99.99
2018-07-30T03:34:02.661Z,99.99
2018-07-30T03:35:02.850Z,99.99
2018-07-30T03:36:02.664Z,99.99
2018-07-30T03:37:02.668Z,99.99
2018-07-30T03:38:02.667Z,99.99
2018-07-30T03:39:02.869Z,99.99
2018-07-30T03:40:02.671Z,99.99
2018-07-30T03:41:02.676Z,99.99
2018-07-30T03:42:02.711Z,99.99
2018-07-30T03:43:02.888Z,99.99
2018-07-30T03:44:02.692Z,99.99
2018-07-30T03:45:02.694Z,99.99
2018-07-30T03:46:02.697Z,99.83
2018-07-30T03:47:02.905Z,98.58
2018-07-30T03:48:02.783Z,98.77
2018-07-30T03:49:02.717Z,99.35
2018-07-30T03:50:02.731Z,99.83
2018-07-30T03:51:02.743Z,99.99
2018-07-30T03:52:02.746Z,99.99
2018-07-30T03:53:02.932Z,99.99
2018-07-30T03:54:02.747Z,99.99
2018-07-30T03:55:02.742Z,99.99
2018-07-30T03:56:02.746Z,99.99
2018-07-30T03:57:02.751Z,99.99
2018-07-30T03:58:02.835Z,99.99
2018-07-30T03:59:02.761Z,99.99
2018-07-30T04:00:03.022Z,99.99
2018-07-30T04:01:02.796Z,99.99
2018-07-30T04:02:02.785Z,99.99
2018-07-30T04:03:02.776Z,99.99
2018-07-30T04:04:02.780Z,99.99
2018-07-30T04:05:02.998Z,99.99
2018-07-30T04:06:02.845Z,99.99
2018-07-30T04:07:02.814Z,99.99
2018-07-30T04:08:03.031Z,99.99
2018-07-30T04:09:02.809Z,99.99
2018-07-30T04:10:02.805Z,99.99
2018-07-30T04:11:02.812Z,99.99
2018-07-30T04:12:02.816Z,99.99
2018-07-30T04:13:02.821Z,99.99
2018-07-30T04:14:02.827Z,99.99
2018-07-30T04:15:02.833Z,99.99
2018-07-30T04:16:02.850Z,99.99
2018-07-30T04:17:02.850Z,99.99
2018-07-30T04:18:02.843Z,99.99
2018-07-30T04:19:02.882Z,99.99
2018-07-30T04:20:02.855Z,99.99
2018-07-30T04:21:02.866Z,99.99
2018-07-30T04:22:02.897Z,99.99
2018-07-30T04:23:03.077Z,99.99
2018-07-30T04:24:03.128Z,99.99
2018-07-30T04:25:03.096Z,99.99
2018-07-30T04:26:02.892Z,99.99
2018-07-30T04:27:03.084Z,99.99
2018-07-30T04:28:02.915Z,99.99
2018-07-30T04:29:02.892Z,99.99
2018-07-30T04:30:02.896Z,99.99
2018-07-30T04:31:02.900Z,99.99
2018-07-30T04:32:03.109Z,99.99
2018-07-30T04:33:02.909Z,99.99
2018-07-30T04:34:02.952Z,99.99
2018-07-30T04:35:02.932Z,99.99
2018-07-30T04:36:02.931Z,99.99
2018-07-30T04:37:02.925Z,99.99
2018-07-30T04:38:03.134Z,99.99
2018-07-30T04:39:02.949Z,99.99
2018-07-30T04:40:02.940Z,99.99
2018-07-30T04:41:02.956Z,99.99
2018-07-30T04:42:02.949Z,99.99
2018-07-30T04:43:02.950Z,99.99
2018-07-30T04:44:03.169Z,99.99
2018-07-30T04:45:02.961Z,99.99
2018-07-30T04:46:02.964Z,99.99
2018-07-30T04:47:02.971Z,99.99
2018-07-30T04:48:03.186Z,99.99
2018-07-30T04:49:03.008Z,99.99
2018-07-30T04:50:02.981Z,99.99
2018-07-30T04:51:03.200Z,99.99
2018-07-30T04:52:03.019Z,99.99
2018-07-30T04:53:03.201Z,99.99
2018-07-30T04:54:03.030Z,99.99
2018-07-30T04:55:03.208Z,99.99
2018-07-30T04:56:03.215Z,99.99
2018-07-30T04:57:03.084Z,99.99
2018-07-30T04:58:03.235Z,99.99
2018-07-30T04:59:03.023Z,99.99
2018-07-30T05:00:03.031Z,99.99
2018-07-30T05:01:03.232Z,99.99
2018-07-30T05:02:03.036Z,99.99
2018-07-30T05:03:03.041Z,99.99
2018-07-30T05:04:03.049Z,99.99
2018-07-30T05:05:03.070Z,99.99
2018-07-30T05:06:03.072Z,99.99
2018-07-30T05:07:03.091Z,99.99
2018-07-30T05:08:03.092Z,99.99
2018-07-30T05:09:03.109Z,99.99
2018-07-30T05:10:03.249Z,99.99
2018-07-30T05:11:03.096Z,99.99
2018-07-30T05:12:03.338Z,99.99
2018-07-30T05:13:03.088Z,99.99
2018-07-30T05:14:03.136Z,99.99
2018-07-30T05:15:03.113Z,98.92
2018-07-30T05:16:03.118Z,99.99
2018-07-30T05:17:03.129Z,99.59
2018-07-30T05:18:03.143Z,98.63
2018-07-30T05:19:03.129Z,97.67
2018-07-30T05:20:03.132Z,98.54
2018-07-30T05:21:03.126Z,97.76
2018-07-30T05:22:03.169Z,93.57
2018-07-30T05:23:03.156Z,92.27
2018-07-30T05:24:03.150Z,92.61
2018-07-30T05:25:03.171Z,94.82
2018-07-30T05:26:03.164Z,96.56
2018-07-30T05:27:03.174Z,95.79
2018-07-30T05:28:03.189Z,93.76
2018-07-30T05:29:03.176Z,93.52
2018-07-30T05:30:03.182Z,92.08
2018-07-30T05:31:03.177Z,89.47
2018-07-30T05:32:03.184Z,87.45
2018-07-30T05:33:03.201Z,90.53
2018-07-30T05:34:03.192Z,88.93
2018-07-30T05:35:03.202Z,89.90
2018-07-30T05:36:03.226Z,90.29
2018-07-30T05:37:03.305Z,86.82
2018-07-30T05:38:03.220Z,84.50
2018-07-30T05:39:03.276Z,84.59
2018-07-30T05:40:03.233Z,85.37
2018-07-30T05:41:03.255Z,83.96
2018-07-30T05:42:03.275Z,83.29
2018-07-30T05:43:03.281Z,85.50
2018-07-30T05:44:03.297Z,85.31
2018-07-30T05:45:03.275Z,85.22
2018-07-30T05:46:03.286Z,84.35
2018-07-30T05:47:03.282Z,84.16
2018-07-30T05:48:03.294Z,83.77
2018-07-30T05:49:03.316Z,82.71
2018-07-30T05:50:03.361Z,82.71
2018-07-30T05:51:03.299Z,82.75
2018-07-30T05:52:03.316Z,82.65
2018-07-30T05:53:03.315Z,81.11
2018-07-30T05:54:03.295Z,81.40
2018-07-30T05:55:03.532Z,82.46
2018-07-30T05:56:03.339Z,81.88
2018-07-30T05:57:03.322Z,81.59
2018-07-30T05:58:03.331Z,79.47
2018-07-30T05:59:03.336Z,79.31
2018-07-30T06:00:03.347Z,80.08
2018-07-30T06:01:03.553Z,79.41
2018-07-30T06:02:03.344Z,79.12
2018-07-30T06:03:03.367Z,77.57
2018-07-30T06:04:03.363Z,76.90
2018-07-30T06:05:03.561Z,77.42
2018-07-30T06:06:03.362Z,76.74
2018-07-30T06:07:03.368Z,77.22
2018-07-30T06:08:03.379Z,77.32
2018-07-30T06:09:03.380Z,78.42
2018-07-30T06:10:03.387Z,77.61
2018-07-30T06:11:03.595Z,77.07
2018-07-30T06:12:03.399Z,76.93
2018-07-30T06:13:03.413Z,77.17
2018-07-30T06:14:03.422Z,75.91
2018-07-30T06:15:03.416Z,75.52
2018-07-30T06:16:03.429Z,75.43
2018-07-30T06:17:03.451Z,75.81
2018-07-30T06:18:03.433Z,73.97
2018-07-30T06:19:03.642Z,74.36
2018-07-30T06:20:03.445Z,75.07
2018-07-30T06:21:03.469Z,75.37
2018-07-30T06:22:03.468Z,75.07
2018-07-30T06:23:03.471Z,74.40
2018-07-30T06:24:03.480Z,72.56
2018-07-30T06:25:03.490Z,72.69
2018-07-30T06:26:03.505Z,73.37
2018-07-30T06:27:03.502Z,72.89
2018-07-30T06:28:03.513Z,71.24
2018-07-30T06:29:03.499Z,72.24
2018-07-30T06:30:03.508Z,71.56
2018-07-30T06:31:03.512Z,71.76
2018-07-30T06:32:03.586Z,73.11
2018-07-30T06:33:03.536Z,71.95
2018-07-30T06:34:03.527Z,70.89
2018-07-30T06:35:03.748Z,72.44
2018-07-30T06:36:03.556Z,72.83
2018-07-30T06:37:03.574Z,71.47
2018-07-30T06:38:03.767Z,71.80
2018-07-30T06:39:03.574Z,70.34
2018-07-30T06:40:03.769Z,71.22
2018-07-30T06:41:03.581Z,70.92
2018-07-30T06:42:03.590Z,68.79
2018-07-30T06:43:03.585Z,70.34
2018-07-30T06:44:03.809Z,69.67
2018-07-30T06:45:03.801Z,69.27
2018-07-30T06:46:03.644Z,68.60
2018-07-30T06:47:03.612Z,69.76
2018-07-30T06:48:03.652Z,70.25
2018-07-30T06:49:03.641Z,69.73
2018-07-30T06:50:03.629Z,71.76
2018-07-30T06:51:03.647Z,71.28
2018-07-30T06:52:03.658Z,71.56
2018-07-30T06:53:03.650Z,71.76
2018-07-30T06:54:03.660Z,71.56
2018-07-30T06:55:03.665Z,71.66
2018-07-30T06:56:03.682Z,72.69
2018-07-30T06:57:03.674Z,71.53
2018-07-30T06:58:03.692Z,71.95
2018-07-30T06:59:03.688Z,72.69
2018-07-30T07:00:03.699Z,72.02
2018-07-30T07:01:03.700Z,71.72
2018-07-30T07:02:03.743Z,72.50
2018-07-30T07:03:03.713Z,71.44
2018-07-30T07:04:03.720Z,71.14
2018-07-30T07:05:03.739Z,72.89
2018-07-30T07:06:03.952Z,72.50
2018-07-30T07:07:03.757Z,72.02
2018-07-30T07:08:03.747Z,71.62
2018-07-30T07:09:03.765Z,72.79
2018-07-30T07:10:03.779Z,75.89
2018-07-30T07:11:03.764Z,73.89
2018-07-30T07:12:03.977Z,72.89
2018-07-30T07:13:03.777Z,73.60
2018-07-30T07:14:03.796Z,73.37
2018-07-30T07:15:03.993Z,73.08
2018-07-30T07:16:04.002Z,72.69
2018-07-30T07:17:03.818Z,72.79
2018-07-30T07:18:03.812Z,73.18
2018-07-30T07:19:03.826Z,73.47
2018-07-30T07:20:03.840Z,73.08
2018-07-30T07:21:04.045Z,72.60
2018-07-30T07:22:04.130Z,72.98
2018-07-30T07:23:04.070Z,71.53
2018-07-30T07:24:03.848Z,72.11
2018-07-30T07:25:03.869Z,72.30
2018-07-30T07:26:03.864Z,72.79
2018-07-30T07:27:03.900Z,72.02
2018-07-30T07:28:03.925Z,72.15
2018-07-30T07:29:03.883Z,72.92
2018-07-30T07:30:03.899Z,73.31
2018-07-30T07:31:03.925Z,73.11
2018-07-30T07:32:03.901Z,71.37
2018-07-30T07:33:03.907Z,70.79
2018-07-30T07:34:03.911Z,72.15
2018-07-30T07:35:03.951Z,72.15
2018-07-30T07:36:03.944Z,72.28
2018-07-30T07:37:03.944Z,70.73
2018-07-30T07:38:03.939Z,71.80
2018-07-30T07:39:03.947Z,71.31
2018-07-30T07:40:03.970Z,71.50
2018-07-30T07:41:03.960Z,70.92
2018-07-30T07:42:04.022Z,70.15
2018-07-30T07:43:03.976Z,70.37
2018-07-30T07:44:03.979Z,70.28
2018-07-30T07:45:04.081Z,68.44
2018-07-30T07:46:04.198Z,68.54
2018-07-30T07:47:04.010Z,68.66
2018-07-30T07:48:04.007Z,67.79
2018-07-30T07:49:04.029Z,66.92
2018-07-30T07:50:04.039Z,67.54
2018-07-30T07:51:04.146Z,66.82
2018-07-30T07:52:04.246Z,65.79
2018-07-30T07:53:04.052Z,65.50
2018-07-30T07:54:04.048Z,64.43
2018-07-30T07:55:04.099Z,66.86
2018-07-30T07:56:04.065Z,66.63
2018-07-30T07:57:04.078Z,65.50
2018-07-30T07:58:04.075Z,66.66
2018-07-30T07:59:04.087Z,67.79
2018-07-30T08:00:04.128Z,68.47
2018-07-30T08:01:04.104Z,66.34
2018-07-30T08:02:04.317Z,65.95
2018-07-30T08:03:04.122Z,67.99
2018-07-30T08:04:04.142Z,68.28
2018-07-30T08:05:04.368Z,68.66
2018-07-30T08:06:04.129Z,67.63
2018-07-30T08:07:04.135Z,69.09
2018-07-30T08:08:04.153Z,68.12
2018-07-30T08:09:04.180Z,65.59
2018-07-30T08:10:04.171Z,66.27
2018-07-30T08:11:04.243Z,67.83
2018-07-30T08:12:04.170Z,68.31
2018-07-30T08:13:04.177Z,68.21
2018-07-30T08:14:04.184Z,66.08
2018-07-30T08:15:04.192Z,66.95
2018-07-30T08:16:04.215Z,67.54
2018-07-30T08:17:04.217Z,67.73
2018-07-30T08:18:04.413Z,66.66
2018-07-30T08:19:04.219Z,65.98
2018-07-30T08:20:04.237Z,66.17
2018-07-30T08:21:04.230Z,66.99
2018-07-30T08:22:04.240Z,67.96
2018-07-30T08:23:04.245Z,66.30
2018-07-30T08:24:04.252Z,66.30
2018-07-30T08:25:04.259Z,65.95
2018-07-30T08:26:04.266Z,65.95
2018-07-30T08:27:04.284Z,65.37
2018-07-30T08:28:04.480Z,65.66
2018-07-30T08:29:04.523Z,64.69
2018-07-30T08:30:04.298Z,63.81
2018-07-30T08:31:04.303Z,64.88
2018-07-30T08:32:04.310Z,66.69
2018-07-30T08:33:04.341Z,67.08
2018-07-30T08:34:04.323Z,67.76
2018-07-30T08:35:04.357Z,65.72
2018-07-30T08:36:04.551Z,66.21
2018-07-30T08:37:04.352Z,67.18
2018-07-30T08:38:04.349Z,66.11
2018-07-30T08:39:04.360Z,65.63
2018-07-30T08:40:04.364Z,64.69
2018-07-30T08:41:04.370Z,67.21
2018-07-30T08:42:04.378Z,65.56
2018-07-30T08:43:04.403Z,65.37
2018-07-30T08:44:04.393Z,65.47
2018-07-30T08:45:04.606Z,64.69
2018-07-30T08:46:04.409Z,65.08
2018-07-30T08:47:04.417Z,65.17
2018-07-30T08:48:04.423Z,64.49
2018-07-30T08:49:04.428Z,65.27
2018-07-30T08:50:04.461Z,66.14
2018-07-30T08:51:04.455Z,64.78
2018-07-30T08:52:04.451Z,65.85
2018-07-30T08:53:04.458Z,65.56
2018-07-30T08:54:04.466Z,65.01
2018-07-30T08:55:04.478Z,64.14
2018-07-30T08:56:04.480Z,64.43
2018-07-30T08:57:04.487Z,64.65
2018-07-30T08:58:04.494Z,63.87
2018-07-30T08:59:04.504Z,62.64
2018-07-30T09:00:04.524Z,61.96
2018-07-30T09:01:04.518Z,62.54
2018-07-30T09:02:04.524Z,61.57
2018-07-30T09:03:04.736Z,62.57
2018-07-30T09:04:04.551Z,61.21
2018-07-30T09:05:04.560Z,60.14
2018-07-30T09:06:04.553Z,60.79
2018-07-30T09:07:04.787Z,61.96
2018-07-30T09:08:04.774Z,61.47
2018-07-30T09:09:04.778Z,61.31
2018-07-30T09:10:04.783Z,61.31
2018-07-30T09:11:04.594Z,61.15
2018-07-30T09:12:04.800Z,59.10
2018-07-30T09:13:04.807Z,59.78
2018-07-30T09:14:04.654Z,60.95
2018-07-30T09:15:04.638Z,60.20
2018-07-30T09:16:04.638Z,59.69
2018-07-30T09:17:04.697Z,58.15
2018-07-30T09:18:04.680Z,58.64
2018-07-30T09:19:04.683Z,58.15
2018-07-30T09:20:04.868Z,58.64
2018-07-30T09:21:04.686Z,59.03
2018-07-30T09:22:04.678Z,58.25
2018-07-30T09:23:04.894Z,58.35
2018-07-30T09:24:04.697Z,58.54
2018-07-30T09:25:04.708Z,58.06
2018-07-30T09:26:04.723Z,58.64
2018-07-30T09:27:04.806Z,57.09
2018-07-30T09:28:04.744Z,57.60
2018-07-30T09:29:04.764Z,58.58
2018-07-30T09:30:04.782Z,57.21
2018-07-30T09:31:04.772Z,57.50
2018-07-30T09:32:04.756Z,56.85
2018-07-30T09:33:04.797Z,56.65
2018-07-30T09:34:04.788Z,57.14
2018-07-30T09:35:04.779Z,57.73
2018-07-30T09:36:04.994Z,56.65
2018-07-30T09:37:04.795Z,57.04
2018-07-30T09:38:04.802Z,55.48
2018-07-30T09:39:05.012Z,56.04
2018-07-30T09:40:04.826Z,56.62
2018-07-30T09:41:04.816Z,55.26
2018-07-30T09:42:04.828Z,57.60
2018-07-30T09:43:04.844Z,56.33
2018-07-30T09:44:05.058Z,56.30
2018-07-30T09:45:04.850Z,57.06
2018-07-30T09:46:04.866Z,59.07
2018-07-30T09:47:04.866Z,59.75
2018-07-30T09:48:04.887Z,60.53
2018-07-30T09:49:04.882Z,62.16
2018-07-30T09:50:04.908Z,61.77
2018-07-30T09:51:04.915Z,62.64
2018-07-30T09:52:05.109Z,60.50
2018-07-30T09:53:04.916Z,60.44
2018-07-30T09:54:05.118Z,59.17
2018-07-30T09:55:04.944Z,59.56
2018-07-30T09:56:04.936Z,59.46
2018-07-30T09:57:04.956Z,60.11
2018-07-30T09:59:05.150Z,59.56
2018-07-30T10:00:04.955Z,58.13
2018-07-30T10:01:04.972Z,56.86
2018-07-30T10:02:04.981Z,56.99
2018-07-30T10:03:04.990Z,56.82
2018-07-30T10:04:04.992Z,56.82
2018-07-30T10:05:05.004Z,56.14
2018-07-30T10:06:05.045Z,59.26
2018-07-30T10:07:05.028Z,54.65
2018-07-30T10:08:05.027Z,56.79
2018-07-30T10:09:05.235Z,56.99
2018-07-30T10:10:05.036Z,58.84
2018-07-30T10:11:05.050Z,57.54
2018-07-30T10:12:05.063Z,58.71
2018-07-30T10:13:05.066Z,57.45
2018-07-30T10:14:05.084Z,58.49
2018-07-30T10:15:05.078Z,59.17
2018-07-30T10:16:05.090Z,58.69
2018-07-30T10:17:05.097Z,58.69
2018-07-30T10:18:05.163Z,60.24
2018-07-30T10:19:05.127Z,60.34
2018-07-30T10:20:05.115Z,61.02
2018-07-30T10:21:05.331Z,58.87
2018-07-30T10:22:05.325Z,60.34
2018-07-30T10:23:05.136Z,59.27
2018-07-30T10:24:05.157Z,59.85
2018-07-30T10:25:05.139Z,60.82
2018-07-30T10:26:05.196Z,60.63
2018-07-30T10:27:05.177Z,59.82
2018-07-30T10:28:05.192Z,60.41
2018-07-30T10:29:05.201Z,59.72
2018-07-30T10:30:05.379Z,60.41
2018-07-30T10:31:05.190Z,59.14
2018-07-30T10:32:05.396Z,58.97
2018-07-30T10:33:05.201Z,58.71
2018-07-30T10:34:05.221Z,59.00
2018-07-30T10:35:05.236Z,56.47
2018-07-30T10:36:05.255Z,57.64
2018-07-30T10:37:05.231Z,58.03
2018-07-30T10:38:05.310Z,57.45
2018-07-30T10:39:05.269Z,57.25
2018-07-30T10:40:05.255Z,56.47
2018-07-30T10:41:05.279Z,58.15
2018-07-30T10:42:05.472Z,56.21
2018-07-30T10:43:05.479Z,55.94
2018-07-30T10:44:05.281Z,55.94
2018-07-30T10:45:05.492Z,55.85
2018-07-30T10:46:05.297Z,54.02
2018-07-30T10:47:05.305Z,53.92
2018-07-30T10:48:05.315Z,53.83
2018-07-30T10:49:05.334Z,53.44
2018-07-30T10:50:05.330Z,54.31
2018-07-30T10:51:05.545Z,53.36
2018-07-30T10:52:05.344Z,55.41
2018-07-30T10:53:05.350Z,54.24
2018-07-30T10:54:05.358Z,53.75
2018-07-30T10:55:05.368Z,52.87
2018-07-30T10:56:05.376Z,53.66
2018-07-30T10:57:05.382Z,52.48
2018-07-30T10:58:31.264Z,54.31
2018-07-30T10:59:05.404Z,54.21
2018-07-30T11:00:05.404Z,55.26
2018-07-30T11:01:05.461Z,56.07
2018-07-30T11:02:05.419Z,53.73
2018-07-30T11:03:05.440Z,54.41
2018-07-30T11:04:05.449Z,54.34
2018-07-30T11:05:05.445Z,53.56
2018-07-30T11:06:05.654Z,53.66
2018-07-30T11:07:05.468Z,53.17
2018-07-30T11:08:05.464Z,53.46
2018-07-30T11:09:05.476Z,53.58
2018-07-30T11:10:05.691Z,52.29
2018-07-30T11:11:05.509Z,51.80
2018-07-30T11:12:05.510Z,53.63
2018-07-30T11:13:05.527Z,54.80
2018-07-30T11:14:05.520Z,55.09
2018-07-30T11:15:05.521Z,54.99
2018-07-30T11:16:05.541Z,53.80
2018-07-30T11:17:05.548Z,54.19
2018-07-30T11:18:05.753Z,54.48
2018-07-30T11:19:05.772Z,56.04
2018-07-30T11:20:05.575Z,55.46
2018-07-30T11:21:05.588Z,56.01
2018-07-30T11:22:05.595Z,56.89
2018-07-30T11:23:05.593Z,55.69
2018-07-30T11:24:05.596Z,56.67
2018-07-30T11:25:05.594Z,56.47
2018-07-30T11:26:05.819Z,57.84
2018-07-30T11:27:05.814Z,58.81
2018-07-30T11:28:05.756Z,59.56
2018-07-30T11:29:05.627Z,59.07
2018-07-30T11:30:05.644Z,57.61
2018-07-30T11:31:05.657Z,56.74
2018-07-30T11:32:05.853Z,58.81
2018-07-30T11:33:05.659Z,57.35
2018-07-30T11:34:05.680Z,57.54
2018-07-30T11:35:05.682Z,56.47
2018-07-30T11:36:05.681Z,56.57
2018-07-30T11:37:05.689Z,57.15
2018-07-30T11:38:05.915Z,56.67
2018-07-30T11:39:05.703Z,57.18
2018-07-30T11:40:05.938Z,56.11
2018-07-30T11:41:05.721Z,54.77
2018-07-30T11:42:05.775Z,55.46
2018-07-30T11:43:05.735Z,54.19
2018-07-30T11:44:05.755Z,52.66
2018-07-30T11:45:05.760Z,52.00
2018-07-30T11:46:05.757Z,52.17
2018-07-30T11:47:05.768Z,51.80
2018-07-30T11:48:05.776Z,52.09
2018-07-30T11:49:05.786Z,51.31
2018-07-30T11:50:05.790Z,52.97
2018-07-30T11:51:05.797Z,54.80
2018-07-30T11:52:06.008Z,51.97
2018-07-30T11:53:05.827Z,51.87
2018-07-30T11:54:05.858Z,52.75
2018-07-30T11:55:05.829Z,51.87
2018-07-30T11:56:05.836Z,52.46
2018-07-30T11:57:06.048Z,52.46
2018-07-30T11:58:05.864Z,52.46
2018-07-30T11:59:05.864Z,52.26
2018-07-30T12:00:05.870Z,52.48
2018-07-30T12:01:06.012Z,52.68
2018-07-30T12:02:05.904Z,52.19
2018-07-30T12:03:05.893Z,51.61
2018-07-30T12:04:05.918Z,51.12
2018-07-30T12:05:05.906Z,51.21
2018-07-30T12:06:06.116Z,52.29
2018-07-30T12:07:05.932Z,53.63
2018-07-30T12:08:05.943Z,52.26
2018-07-30T12:09:05.939Z,53.70
2018-07-30T12:10:05.950Z,53.24
2018-07-30T12:11:05.964Z,55.65
2018-07-30T12:12:06.168Z,53.31
2018-07-30T12:13:06.182Z,52.63
2018-07-30T12:14:05.991Z,53.41
2018-07-30T12:15:05.998Z,55.46
2018-07-30T12:16:06.011Z,55.07
2018-07-30T12:17:06.212Z,53.21
2018-07-30T12:18:06.054Z,53.63
2018-07-30T12:19:06.032Z,51.70
2018-07-30T12:20:06.034Z,51.39
2018-07-30T12:21:06.056Z,50.73
2018-07-30T12:22:06.055Z,50.99
2018-07-30T12:23:06.051Z,50.90
2018-07-30T12:24:06.066Z,50.63
2018-07-30T12:25:06.065Z,53.73
2018-07-30T12:26:06.090Z,53.73
2018-07-30T12:27:06.104Z,56.16
2018-07-30T12:28:06.100Z,52.24
2018-07-30T12:29:06.119Z,54.09
2018-07-30T12:30:06.205Z,54.87
2018-07-30T12:31:06.126Z,53.89
2018-07-30T12:32:06.164Z,57.50
2018-07-30T12:33:06.140Z,54.97
2018-07-30T12:34:06.341Z,56.62
2018-07-30T12:35:06.157Z,53.02
2018-07-30T12:36:06.170Z,54.48
2018-07-30T12:37:06.175Z,56.82
2018-07-30T12:38:06.172Z,55.46
2018-07-30T12:39:06.195Z,53.11
2018-07-30T12:40:06.395Z,54.80
2018-07-30T12:41:06.215Z,53.14
2018-07-30T12:42:06.225Z,53.05
2018-07-30T12:43:06.228Z,54.31
2018-07-30T12:44:06.251Z,53.14
2018-07-30T12:45:06.371Z,54.02
2018-07-30T12:46:06.236Z,54.50
2018-07-30T12:47:06.459Z,54.21
2018-07-30T12:48:06.266Z,53.24
2018-07-30T12:49:06.282Z,53.70
2018-07-30T12:50:06.264Z,53.70
2018-07-30T12:51:06.496Z,53.89
2018-07-30T12:52:06.292Z,55.36
2018-07-30T12:53:06.382Z,56.92